Xiao'Ergou, China
Current Conditions -  °F | °C
As of 11:00 PM on Tuesday 21 Oct 2014 (Local Time) from UHBB Reporting Station
Clear Clear  
Wind Chill: 11°   Ceiling: Unl
Heat Index: 18°   Visibility: 6mi
Dew Point:   Wind: 4mph
Humidity: 45%   Direction: NA
Pressure: 30.09"   Gusts: NA
Location:  49.2°N, 123.72°E
Report Text: UHBB 211500Z VRB02MPS CAVOK M08/M18 Q1019 NOSIG RMK QFE746/099536090060
Loading
Personal Weather Stations






























Interactive Weather Map
Tropical Storm Tracking
New forecast layout! Learn more

10-Day Weather Forecast

Advertisements
Track Severe Weather on mobile